sensor_id;sensor_type;location;lat;lon;timestamp;temperature;humidity
48978;DHT22;34793;48.940;2.618;2022-07-22T00:00:22;25.10;89.00
48978;DHT22;34793;48.940;2.618;2022-07-22T00:02:48;25.20;88.50
48978;DHT22;34793;48.940;2.618;2022-07-22T00:05:13;25.30;88.70
48978;DHT22;34793;48.940;2.618;2022-07-22T00:07:39;25.30;88.50
48978;DHT22;34793;48.940;2.618;2022-07-22T00:10:06;24.90;89.30
48978;DHT22;34793;48.940;2.618;2022-07-22T00:12:32;25.00;89.30
48978;DHT22;34793;48.940;2.618;2022-07-22T00:14:57;24.80;90.00
48978;DHT22;34793;48.940;2.618;2022-07-22T00:17:23;24.80;89.70
48978;DHT22;34793;48.940;2.618;2022-07-22T00:19:48;24.90;89.30
48978;DHT22;34793;48.940;2.618;2022-07-22T00:22:14;25.00;89.00
48978;DHT22;34793;48.940;2.618;2022-07-22T00:24:39;25.00;88.50
48978;DHT22;34793;48.940;2.618;2022-07-22T00:27:05;25.00;88.90
48978;DHT22;34793;48.940;2.618;2022-07-22T00:29:30;24.80;88.90
48978;DHT22;34793;48.940;2.618;2022-07-22T00:31:56;24.70;90.00
48978;DHT22;34793;48.940;2.618;2022-07-22T00:34:21;24.80;89.00
48978;DHT22;34793;48.940;2.618;2022-07-22T00:36:47;24.90;88.20
48978;DHT22;34793;48.940;2.618;2022-07-22T00:39:12;24.80;88.80
48978;DHT22;34793;48.940;2.618;2022-07-22T00:41:37;24.70;89.20
48978;DHT22;34793;48.940;2.618;2022-07-22T00:44:04;24.40;89.50
48978;DHT22;34793;48.940;2.618;2022-07-22T00:46:30;24.60;88.70
48978;DHT22;34793;48.940;2.618;2022-07-22T00:48:56;24.40;90.00
48978;DHT22;34793;48.940;2.618;2022-07-22T00:51:22;24.40;89.50
48978;DHT22;34793;48.940;2.618;2022-07-22T00:53:48;24.50;89.50
48978;DHT22;34793;48.940;2.618;2022-07-22T00:56:15;24.40;89.90
48978;DHT22;34793;48.940;2.618;2022-07-22T00:58:41;24.70;88.80
48978;DHT22;34793;48.940;2.618;2022-07-22T01:01:06;24.90;88.10
48978;DHT22;34793;48.940;2.618;2022-07-22T01:03:32;24.50;89.00
48978;DHT22;34793;48.940;2.618;2022-07-22T01:05:57;24.80;88.40
48978;DHT22;34793;48.940;2.618;2022-07-22T01:08:23;24.60;88.40
48978;DHT22;34793;48.940;2.618;2022-07-22T01:10:48;24.50;88.30
48978;DHT22;34793;48.940;2.618;2022-07-22T01:13:14;24.60;88.50
48978;DHT22;34793;48.940;2.618;2022-07-22T01:15:39;24.50;88.60
48978;DHT22;34793;48.940;2.618;2022-07-22T01:18:05;24.60;87.90
48978;DHT22;34793;48.940;2.618;2022-07-22T01:20:30;24.80;87.10
48978;DHT22;34793;48.940;2.618;2022-07-22T01:22:56;24.60;87.60
48978;DHT22;34793;48.940;2.618;2022-07-22T01:25:22;24.70;87.50
48978;DHT22;34793;48.940;2.618;2022-07-22T01:27:47;24.60;87.50
48978;DHT22;34793;48.940;2.618;2022-07-22T01:30:13;24.60;88.10
48978;DHT22;34793;48.940;2.618;2022-07-22T01:32:38;24.50;87.80
48978;DHT22;34793;48.940;2.618;2022-07-22T01:35:04;24.50;87.80
48978;DHT22;34793;48.940;2.618;2022-07-22T01:37:31;24.50;87.80
48978;DHT22;34793;48.940;2.618;2022-07-22T01:39:56;24.50;87.70
48978;DHT22;34793;48.940;2.618;2022-07-22T01:42:22;24.50;87.60
48978;DHT22;34793;48.940;2.618;2022-07-22T01:44:47;24.50;87.50
48978;DHT22;34793;48.940;2.618;2022-07-22T01:47:13;24.30;88.20
48978;DHT22;34793;48.940;2.618;2022-07-22T01:49:38;24.20;88.30
48978;DHT22;34793;48.940;2.618;2022-07-22T01:52:04;24.10;89.00
48978;DHT22;34793;48.940;2.618;2022-07-22T01:54:30;24.20;88.10
48978;DHT22;34793;48.940;2.618;2022-07-22T01:59:39;24.40;87.40
48978;DHT22;34793;48.940;2.618;2022-07-22T02:02:05;24.60;86.40
48978;DHT22;34793;48.940;2.618;2022-07-22T02:04:30;24.60;86.60
48978;DHT22;34793;48.940;2.618;2022-07-22T02:06:56;24.70;85.90
48978;DHT22;34793;48.940;2.618;2022-07-22T02:09:21;24.50;86.40
48978;DHT22;34793;48.940;2.618;2022-07-22T02:11:53;24.60;86.00
48978;DHT22;34793;48.940;2.618;2022-07-22T02:14:18;24.50;86.10
48978;DHT22;34793;48.940;2.618;2022-07-22T02:16:44;24.60;86.00
48978;DHT22;34793;48.940;2.618;2022-07-22T02:19:09;24.20;87.50
48978;DHT22;34793;48.940;2.618;2022-07-22T02:21:35;24.00;88.40
48978;DHT22;34793;48.940;2.618;2022-07-22T02:24:00;24.10;87.90
48978;DHT22;34793;48.940;2.618;2022-07-22T02:26:26;24.10;88.30
48978;DHT22;34793;48.940;2.618;2022-07-22T02:28:51;24.00;87.50
48978;DHT22;34793;48.940;2.618;2022-07-22T02:31:17;23.70;89.00
48978;DHT22;34793;48.940;2.618;2022-07-22T02:33:42;23.70;89.00
48978;DHT22;34793;48.940;2.618;2022-07-22T02:36:08;23.80;88.60
48978;DHT22;34793;48.940;2.618;2022-07-22T02:38:33;23.60;89.10
48978;DHT22;34793;48.940;2.618;2022-07-22T02:40:59;23.70;89.10
48978;DHT22;34793;48.940;2.618;2022-07-22T02:43:24;23.70;89.20
48978;DHT22;34793;48.940;2.618;2022-07-22T02:45:50;23.90;88.60
48978;DHT22;34793;48.940;2.618;2022-07-22T02:48:15;23.80;88.60
48978;DHT22;34793;48.940;2.618;2022-07-22T02:50:44;23.60;89.40
48978;DHT22;34793;48.940;2.618;2022-07-22T02:53:10;23.40;89.20
48978;DHT22;34793;48.940;2.618;2022-07-22T02:55:35;23.60;89.10
48978;DHT22;34793;48.940;2.618;2022-07-22T02:58:05;23.50;88.90
48978;DHT22;34793;48.940;2.618;2022-07-22T03:00:30;23.30;89.70
48978;DHT22;34793;48.940;2.618;2022-07-22T03:02:56;23.30;89.60
48978;DHT22;34793;48.940;2.618;2022-07-22T03:05:21;23.10;90.20
48978;DHT22;34793;48.940;2.618;2022-07-22T03:07:47;23.30;89.30
48978;DHT22;34793;48.940;2.618;2022-07-22T03:10:13;23.30;89.50
48978;DHT22;34793;48.940;2.618;2022-07-22T03:12:39;23.50;88.80
48978;DHT22;34793;48.940;2.618;2022-07-22T03:15:05;23.50;88.90
48978;DHT22;34793;48.940;2.618;2022-07-22T03:17:33;23.50;88.30
48978;DHT22;34793;48.940;2.618;2022-07-22T03:19:58;23.60;88.40
48978;DHT22;34793;48.940;2.618;2022-07-22T03:22:25;23.70;87.80
48978;DHT22;34793;48.940;2.618;2022-07-22T03:24:51;23.60;88.00
48978;DHT22;34793;48.940;2.618;2022-07-22T03:27:16;23.60;87.40
48978;DHT22;34793;48.940;2.618;2022-07-22T03:29:42;23.60;87.70
48978;DHT22;34793;48.940;2.618;2022-07-22T03:32:07;23.60;88.40
48978;DHT22;34793;48.940;2.618;2022-07-22T03:34:33;23.50;87.80
48978;DHT22;34793;48.940;2.618;2022-07-22T03:36:58;23.20;89.10
48978;DHT22;34793;48.940;2.618;2022-07-22T03:39:24;23.30;89.80
48978;DHT22;34793;48.940;2.618;2022-07-22T03:41:49;23.20;90.20
48978;DHT22;34793;48.940;2.618;2022-07-22T03:44:15;23.30;89.30
48978;DHT22;34793;48.940;2.618;2022-07-22T03:46:40;23.20;90.00
48978;DHT22;34793;48.940;2.618;2022-07-22T03:49:06;23.00;90.30
48978;DHT22;34793;48.940;2.618;2022-07-22T03:51:31;22.90;90.40
48978;DHT22;34793;48.940;2.618;2022-07-22T03:53:57;23.10;90.10
48978;DHT22;34793;48.940;2.618;2022-07-22T03:56:22;23.00;90.40
48978;DHT22;34793;48.940;2.618;2022-07-22T03:58:47;23.00;90.20
48978;DHT22;34793;48.940;2.618;2022-07-22T04:01:13;23.10;90.00
48978;DHT22;34793;48.940;2.618;2022-07-22T04:03:38;23.10;90.20
48978;DHT22;34793;48.940;2.618;2022-07-22T04:06:04;23.00;90.00
48978;DHT22;34793;48.940;2.618;2022-07-22T04:08:31;22.90;90.00
48978;DHT22;34793;48.940;2.618;2022-07-22T04:10:57;23.10;89.50
48978;DHT22;34793;48.940;2.618;2022-07-22T04:13:22;23.10;90.10
48978;DHT22;34793;48.940;2.618;2022-07-22T04:15:48;22.90;90.10
48978;DHT22;34793;48.940;2.618;2022-07-22T04:18:13;22.90;90.20
48978;DHT22;34793;48.940;2.618;2022-07-22T04:20:42;22.90;90.20
48978;DHT22;34793;48.940;2.618;2022-07-22T04:23:08;22.80;90.40
48978;DHT22;34793;48.940;2.618;2022-07-22T04:25:33;22.80;90.50
48978;DHT22;34793;48.940;2.618;2022-07-22T04:27:59;22.90;90.10
48978;DHT22;34793;48.940;2.618;2022-07-22T04:30:25;22.60;90.80
48978;DHT22;34793;48.940;2.618;2022-07-22T04:32:50;22.70;90.60
48978;DHT22;34793;48.940;2.618;2022-07-22T04:35:16;22.90;90.50
48978;DHT22;34793;48.940;2.618;2022-07-22T04:37:41;22.60;90.80
48978;DHT22;34793;48.940;2.618;2022-07-22T04:40:07;22.80;90.50
48978;DHT22;34793;48.940;2.618;2022-07-22T04:42:33;22.50;91.00
48978;DHT22;34793;48.940;2.618;2022-07-22T04:44:58;22.70;90.90
48978;DHT22;34793;48.940;2.618;2022-07-22T04:47:24;22.60;90.80
48978;DHT22;34793;48.940;2.618;2022-07-22T04:49:49;22.50;91.30
48978;DHT22;34793;48.940;2.618;2022-07-22T04:52:15;22.60;91.10
48978;DHT22;34793;48.940;2.618;2022-07-22T04:54:41;22.40;91.30
48978;DHT22;34793;48.940;2.618;2022-07-22T04:57:06;22.30;91.70
48978;DHT22;34793;48.940;2.618;2022-07-22T04:59:32;22.50;91.30
48978;DHT22;34793;48.940;2.618;2022-07-22T05:01:57;22.50;91.30
48978;DHT22;34793;48.940;2.618;2022-07-22T05:04:23;22.50;91.40
48978;DHT22;34793;48.940;2.618;2022-07-22T05:06:48;22.40;91.40
48978;DHT22;34793;48.940;2.618;2022-07-22T05:09:14;22.70;91.10
48978;DHT22;34793;48.940;2.618;2022-07-22T05:11:39;22.80;91.10
48978;DHT22;34793;48.940;2.618;2022-07-22T05:14:05;22.70;91.30
48978;DHT22;34793;48.940;2.618;2022-07-22T05:16:30;22.90;91.00
48978;DHT22;34793;48.940;2.618;2022-07-22T05:18:56;23.30;90.70
48978;DHT22;34793;48.940;2.618;2022-07-22T05:21:21;23.20;90.60
48978;DHT22;34793;48.940;2.618;2022-07-22T05:23:47;23.10;90.60
48978;DHT22;34793;48.940;2.618;2022-07-22T05:26:12;23.20;90.70
48978;DHT22;34793;48.940;2.618;2022-07-22T05:28:38;23.00;90.70
48978;DHT22;34793;48.940;2.618;2022-07-22T05:31:03;22.70;91.30
48978;DHT22;34793;48.940;2.618;2022-07-22T05:33:29;22.30;91.90
48978;DHT22;34793;48.940;2.618;2022-07-22T05:35:54;22.60;91.90
48978;DHT22;34793;48.940;2.618;2022-07-22T05:38:20;22.60;91.80
48978;DHT22;34793;48.940;2.618;2022-07-22T05:40:45;22.70;91.50
48978;DHT22;34793;48.940;2.618;2022-07-22T05:43:11;22.90;91.60
48978;DHT22;34793;48.940;2.618;2022-07-22T05:45:36;22.80;91.40
48978;DHT22;34793;48.940;2.618;2022-07-22T05:48:02;23.00;91.40
48978;DHT22;34793;48.940;2.618;2022-07-22T05:50:27;23.10;91.50
48978;DHT22;34793;48.940;2.618;2022-07-22T05:52:53;23.20;91.30
48978;DHT22;34793;48.940;2.618;2022-07-22T05:55:18;23.30;91.10
48978;DHT22;34793;48.940;2.618;2022-07-22T05:57:44;23.30;91.20
48978;DHT22;34793;48.940;2.618;2022-07-22T06:00:09;23.70;91.10
48978;DHT22;34793;48.940;2.618;2022-07-22T06:02:35;23.60;90.80
48978;DHT22;34793;48.940;2.618;2022-07-22T06:05:00;23.80;90.70
48978;DHT22;34793;48.940;2.618;2022-07-22T06:07:26;23.80;90.80
48978;DHT22;34793;48.940;2.618;2022-07-22T06:09:53;23.80;90.30
48978;DHT22;34793;48.940;2.618;2022-07-22T06:12:18;23.80;90.70
48978;DHT22;34793;48.940;2.618;2022-07-22T06:14:44;23.70;90.40
48978;DHT22;34793;48.940;2.618;2022-07-22T06:17:11;23.30;91.00
48978;DHT22;34793;48.940;2.618;2022-07-22T06:19:37;23.40;90.90
48978;DHT22;34793;48.940;2.618;2022-07-22T06:22:02;23.90;90.90
48978;DHT22;34793;48.940;2.618;2022-07-22T06:24:28;24.10;90.50
48978;DHT22;34793;48.940;2.618;2022-07-22T06:26:54;24.30;90.30
48978;DHT22;34793;48.940;2.618;2022-07-22T06:29:20;24.40;90.00
48978;DHT22;34793;48.940;2.618;2022-07-22T06:31:45;24.50;89.70
48978;DHT22;34793;48.940;2.618;2022-07-22T06:34:11;24.70;89.10
48978;DHT22;34793;48.940;2.618;2022-07-22T06:36:38;25.20;88.50
48978;DHT22;34793;48.940;2.618;2022-07-22T06:39:04;25.20;87.60
48978;DHT22;34793;48.940;2.618;2022-07-22T06:41:29;25.30;87.70
48978;DHT22;34793;48.940;2.618;2022-07-22T06:43:55;25.10;87.30
48978;DHT22;34793;48.940;2.618;2022-07-22T06:46:21;25.00;87.80
48978;DHT22;34793;48.940;2.618;2022-07-22T06:48:46;25.10;88.20
48978;DHT22;34793;48.940;2.618;2022-07-22T06:51:12;25.50;88.40
48978;DHT22;34793;48.940;2.618;2022-07-22T06:53:38;25.80;87.30
48978;DHT22;34793;48.940;2.618;2022-07-22T06:56:04;25.70;87.70
48978;DHT22;34793;48.940;2.618;2022-07-22T06:58:29;26.10;86.30
48978;DHT22;34793;48.940;2.618;2022-07-22T07:00:55;26.30;85.40
48978;DHT22;34793;48.940;2.618;2022-07-22T07:03:20;26.60;85.30
48978;DHT22;34793;48.940;2.618;2022-07-22T07:05:47;26.70;84.60
48978;DHT22;34793;48.940;2.618;2022-07-22T07:08:12;26.60;84.30
48978;DHT22;34793;48.940;2.618;2022-07-22T07:10:38;26.80;84.70
48978;DHT22;34793;48.940;2.618;2022-07-22T07:13:03;27.00;84.90
48978;DHT22;34793;48.940;2.618;2022-07-22T07:15:29;27.20;84.30
48978;DHT22;34793;48.940;2.618;2022-07-22T07:17:55;26.90;83.60
48978;DHT22;34793;48.940;2.618;2022-07-22T07:20:21;27.10;84.00
48978;DHT22;34793;48.940;2.618;2022-07-22T07:22:47;27.50;84.10
48978;DHT22;34793;48.940;2.618;2022-07-22T07:25:12;27.80;83.30
48978;DHT22;34793;48.940;2.618;2022-07-22T07:27:38;27.80;82.70
48978;DHT22;34793;48.940;2.618;2022-07-22T07:30:04;27.80;83.10
48978;DHT22;34793;48.940;2.618;2022-07-22T07:32:30;27.80;81.70
48978;DHT22;34793;48.940;2.618;2022-07-22T07:34:55;28.00;81.50
48978;DHT22;34793;48.940;2.618;2022-07-22T07:37:21;28.10;81.40
48978;DHT22;34793;48.940;2.618;2022-07-22T07:39:46;28.10;80.90
48978;DHT22;34793;48.940;2.618;2022-07-22T07:42:12;28.10;81.80
48978;DHT22;34793;48.940;2.618;2022-07-22T07:44:37;28.20;81.90
48978;DHT22;34793;48.940;2.618;2022-07-22T07:47:03;28.50;81.20
48978;DHT22;34793;48.940;2.618;2022-07-22T07:49:28;28.90;81.70
48978;DHT22;34793;48.940;2.618;2022-07-22T07:51:54;29.10;80.10
48978;DHT22;34793;48.940;2.618;2022-07-22T07:54:20;29.10;80.10
48978;DHT22;34793;48.940;2.618;2022-07-22T07:56:46;29.20;79.80
48978;DHT22;34793;48.940;2.618;2022-07-22T07:59:11;29.30;78.40
48978;DHT22;34793;48.940;2.618;2022-07-22T08:01:37;29.10;80.30
48978;DHT22;34793;48.940;2.618;2022-07-22T08:04:02;29.40;79.00
48978;DHT22;34793;48.940;2.618;2022-07-22T08:06:28;29.60;79.50
48978;DHT22;34793;48.940;2.618;2022-07-22T08:08:53;29.40;79.30
48978;DHT22;34793;48.940;2.618;2022-07-22T08:11:19;30.00;80.30
48978;DHT22;34793;48.940;2.618;2022-07-22T08:13:44;30.30;76.40
48978;DHT22;34793;48.940;2.618;2022-07-22T08:16:10;30.60;77.50
48978;DHT22;34793;48.940;2.618;2022-07-22T08:18:35;30.50;76.50
48978;DHT22;34793;48.940;2.618;2022-07-22T08:21:01;30.30;75.60
48978;DHT22;34793;48.940;2.618;2022-07-22T08:23:26;30.50;76.00
48978;DHT22;34793;48.940;2.618;2022-07-22T08:25:52;30.40;76.40
48978;DHT22;34793;48.940;2.618;2022-07-22T08:28:17;30.50;76.10
48978;DHT22;34793;48.940;2.618;2022-07-22T08:30:43;30.90;75.70
48978;DHT22;34793;48.940;2.618;2022-07-22T08:33:17;31.10;76.10
48978;DHT22;34793;48.940;2.618;2022-07-22T08:35:43;31.40;76.60
48978;DHT22;34793;48.940;2.618;2022-07-22T08:38:09;31.20;74.70
48978;DHT22;34793;48.940;2.618;2022-07-22T08:40:34;31.20;74.00
48978;DHT22;34793;48.940;2.618;2022-07-22T08:43:00;31.20;74.00
48978;DHT22;34793;48.940;2.618;2022-07-22T08:45:28;31.10;74.10
48978;DHT22;34793;48.940;2.618;2022-07-22T08:47:54;31.10;74.40
48978;DHT22;34793;48.940;2.618;2022-07-22T08:50:20;31.20;74.50
48978;DHT22;34793;48.940;2.618;2022-07-22T08:52:45;30.90;74.10
48978;DHT22;34793;48.940;2.618;2022-07-22T08:55:11;31.20;75.20
48978;DHT22;34793;48.940;2.618;2022-07-22T08:57:36;31.10;74.20
48978;DHT22;34793;48.940;2.618;2022-07-22T09:00:08;30.90;74.50
48978;DHT22;34793;48.940;2.618;2022-07-22T09:02:37;30.70;74.90
48978;DHT22;34793;48.940;2.618;2022-07-22T09:05:04;30.90;75.50
48978;DHT22;34793;48.940;2.618;2022-07-22T09:09:56;31.20;74.70
48978;DHT22;34793;48.940;2.618;2022-07-22T09:12:23;31.20;74.60
48978;DHT22;34793;48.940;2.618;2022-07-22T09:15:01;31.20;74.80
48978;DHT22;34793;48.940;2.618;2022-07-22T09:17:29;31.30;75.10
48978;DHT22;34793;48.940;2.618;2022-07-22T09:19:56;31.40;75.20
48978;DHT22;34793;48.940;2.618;2022-07-22T09:22:35;31.50;74.00
48978;DHT22;34793;48.940;2.618;2022-07-22T09:25:17;31.10;74.80
48978;DHT22;34793;48.940;2.618;2022-07-22T09:27:44;31.00;74.50
48978;DHT22;34793;48.940;2.618;2022-07-22T09:30:13;30.90;75.30
48978;DHT22;34793;48.940;2.618;2022-07-22T09:32:40;31.00;75.30
48978;DHT22;34793;48.940;2.618;2022-07-22T09:35:06;30.80;74.50
48978;DHT22;34793;48.940;2.618;2022-07-22T09:37:32;30.70;75.40
48978;DHT22;34793;48.940;2.618;2022-07-22T09:40:14;31.20;75.60
48978;DHT22;34793;48.940;2.618;2022-07-22T09:42:43;31.60;75.90
48978;DHT22;34793;48.940;2.618;2022-07-22T09:45:09;31.70;74.40
48978;DHT22;34793;48.940;2.618;2022-07-22T09:47:34;32.10;75.20
48978;DHT22;34793;48.940;2.618;2022-07-22T09:50:00;32.60;72.50
48978;DHT22;34793;48.940;2.618;2022-07-22T09:52:25;33.00;74.20
48978;DHT22;34793;48.940;2.618;2022-07-22T09:54:51;33.30;72.90
48978;DHT22;34793;48.940;2.618;2022-07-22T09:57:18;33.60;71.70
48978;DHT22;34793;48.940;2.618;2022-07-22T09:59:44;33.80;70.60
48978;DHT22;34793;48.940;2.618;2022-07-22T10:02:10;34.00;69.70
48978;DHT22;34793;48.940;2.618;2022-07-22T10:04:36;33.80;69.40
48978;DHT22;34793;48.940;2.618;2022-07-22T10:07:02;33.80;70.20
48978;DHT22;34793;48.940;2.618;2022-07-22T10:12:30;33.80;69.70
48978;DHT22;34793;48.940;2.618;2022-07-22T10:14:56;34.30;69.60
48978;DHT22;34793;48.940;2.618;2022-07-22T10:17:21;34.20;68.80
48978;DHT22;34793;48.940;2.618;2022-07-22T10:19:47;33.90;67.70
48978;DHT22;34793;48.940;2.618;2022-07-22T10:25:00;33.90;68.80
48978;DHT22;34793;48.940;2.618;2022-07-22T10:27:45;33.80;68.40
48978;DHT22;34793;48.940;2.618;2022-07-22T10:30:10;34.00;69.60
48978;DHT22;34793;48.940;2.618;2022-07-22T10:32:37;33.70;68.70
48978;DHT22;34793;48.940;2.618;2022-07-22T10:45:18;33.70;68.10
48978;DHT22;34793;48.940;2.618;2022-07-22T10:47:57;33.50;68.90
48978;DHT22;34793;48.940;2.618;2022-07-22T10:53:04;33.50;67.70
48978;DHT22;34793;48.940;2.618;2022-07-22T10:55:29;33.00;69.00
48978;DHT22;34793;48.940;2.618;2022-07-22T10:57:55;32.40;70.10
48978;DHT22;34793;48.940;2.618;2022-07-22T11:00:21;32.40;69.60
48978;DHT22;34793;48.940;2.618;2022-07-22T11:02:46;32.10;70.00
48978;DHT22;34793;48.940;2.618;2022-07-22T11:05:12;31.90;71.10
48978;DHT22;34793;48.940;2.618;2022-07-22T11:07:45;32.00;71.30
48978;DHT22;34793;48.940;2.618;2022-07-22T11:12:36;31.90;72.50
48978;DHT22;34793;48.940;2.618;2022-07-22T11:15:02;31.70;73.00
48978;DHT22;34793;48.940;2.618;2022-07-22T11:17:27;31.40;72.80
48978;DHT22;34793;48.940;2.618;2022-07-22T11:19:53;31.10;73.80
48978;DHT22;34793;48.940;2.618;2022-07-22T11:25:21;30.70;76.40
48978;DHT22;34793;48.940;2.618;2022-07-22T11:27:51;30.20;76.30
48978;DHT22;34793;48.940;2.618;2022-07-22T11:30:17;29.80;76.80
48978;DHT22;34793;48.940;2.618;2022-07-22T12:05:58;25.50;90.40
48978;DHT22;34793;48.940;2.618;2022-07-22T12:08:24;25.20;90.30
48978;DHT22;34793;48.940;2.618;2022-07-22T12:10:49;25.80;90.20
48978;DHT22;34793;48.940;2.618;2022-07-22T12:13:15;26.40;87.60
48978;DHT22;34793;48.940;2.618;2022-07-22T12:15:41;27.00;86.80
48978;DHT22;34793;48.940;2.618;2022-07-22T12:18:19;27.70;85.40
48978;DHT22;34793;48.940;2.618;2022-07-22T12:20:46;28.30;82.70
48978;DHT22;34793;48.940;2.618;2022-07-22T12:23:12;28.90;80.60
48978;DHT22;34793;48.940;2.618;2022-07-22T12:28:35;29.80;79.40
48978;DHT22;34793;48.940;2.618;2022-07-22T12:31:01;30.20;77.90
48978;DHT22;34793;48.940;2.618;2022-07-22T12:33:26;30.60;77.70
48978;DHT22;34793;48.940;2.618;2022-07-22T12:35:58;30.80;77.70
48978;DHT22;34793;48.940;2.618;2022-07-22T12:38:24;31.30;76.70
48978;DHT22;34793;48.940;2.618;2022-07-22T12:40:50;31.60;75.90
48978;DHT22;34793;48.940;2.618;2022-07-22T12:43:15;31.90;74.50
48978;DHT22;34793;48.940;2.618;2022-07-22T12:45:42;32.10;74.20
48978;DHT22;34793;48.940;2.618;2022-07-22T12:48:09;32.20;74.40
48978;DHT22;34793;48.940;2.618;2022-07-22T12:55:30;32.20;73.20
48978;DHT22;34793;48.940;2.618;2022-07-22T12:57:56;32.50;73.00
48978;DHT22;34793;48.940;2.618;2022-07-22T13:00:23;32.60;72.60
48978;DHT22;34793;48.940;2.618;2022-07-22T13:02:49;32.90;72.60
48978;DHT22;34793;48.940;2.618;2022-07-22T13:05:14;32.80;72.00
48978;DHT22;34793;48.940;2.618;2022-07-22T13:07:40;33.10;71.20
48978;DHT22;34793;48.940;2.618;2022-07-22T13:10:06;32.70;71.00
48978;DHT22;34793;48.940;2.618;2022-07-22T13:12:32;32.60;70.50
48978;DHT22;34793;48.940;2.618;2022-07-22T13:14:57;32.50;70.90
48978;DHT22;34793;48.940;2.618;2022-07-22T13:17:23;32.40;72.30
48978;DHT22;34793;48.940;2.618;2022-07-22T13:19:48;32.60;71.90
48978;DHT22;34793;48.940;2.618;2022-07-22T13:22:14;32.80;72.20
48978;DHT22;34793;48.940;2.618;2022-07-22T13:24:39;32.70;71.90
48978;DHT22;34793;48.940;2.618;2022-07-22T13:35:23;32.30;73.50
48978;DHT22;34793;48.940;2.618;2022-07-22T13:37:48;32.10;73.50
48978;DHT22;34793;48.940;2.618;2022-07-22T13:40:15;31.90;73.70
48978;DHT22;34793;48.940;2.618;2022-07-22T13:42:41;32.20;72.50
48978;DHT22;34793;48.940;2.618;2022-07-22T13:45:06;32.10;72.80
48978;DHT22;34793;48.940;2.618;2022-07-22T13:47:32;32.10;72.40
48978;DHT22;34793;48.940;2.618;2022-07-22T13:49:57;32.10;72.40
48978;DHT22;34793;48.940;2.618;2022-07-22T13:52:23;32.30;72.90
48978;DHT22;34793;48.940;2.618;2022-07-22T13:54:49;32.40;73.90
48978;DHT22;34793;48.940;2.618;2022-07-22T13:57:15;32.40;72.60
48978;DHT22;34793;48.940;2.618;2022-07-22T13:59:41;32.60;73.30
48978;DHT22;34793;48.940;2.618;2022-07-22T14:02:06;32.80;71.20
48978;DHT22;34793;48.940;2.618;2022-07-22T14:04:32;32.90;71.30
48978;DHT22;34793;48.940;2.618;2022-07-22T14:06:57;32.50;71.70
48978;DHT22;34793;48.940;2.618;2022-07-22T14:09:23;32.80;71.80
48978;DHT22;34793;48.940;2.618;2022-07-22T14:11:48;32.60;70.90
48978;DHT22;34793;48.940;2.618;2022-07-22T14:14:14;32.60;71.40
48978;DHT22;34793;48.940;2.618;2022-07-22T14:16:39;32.50;71.00
48978;DHT22;34793;48.940;2.618;2022-07-22T14:21:30;32.70;71.20
48978;DHT22;34793;48.940;2.618;2022-07-22T14:23:56;32.60;70.70
48978;DHT22;34793;48.940;2.618;2022-07-22T14:26:22;32.80;70.90
48978;DHT22;34793;48.940;2.618;2022-07-22T14:29:03;33.20;69.80
48978;DHT22;34793;48.940;2.618;2022-07-22T14:31:29;33.40;69.60
48978;DHT22;34793;48.940;2.618;2022-07-22T14:33:55;33.60;70.20
48978;DHT22;34793;48.940;2.618;2022-07-22T14:36:20;33.30;70.10
48978;DHT22;34793;48.940;2.618;2022-07-22T14:38:46;33.70;70.00
48978;DHT22;34793;48.940;2.618;2022-07-22T14:41:12;33.80;69.00
48978;DHT22;34793;48.940;2.618;2022-07-22T14:43:37;33.90;68.70
48978;DHT22;34793;48.940;2.618;2022-07-22T14:46:03;33.70;68.60
48978;DHT22;34793;48.940;2.618;2022-07-22T14:48:38;33.90;68.60
48978;DHT22;34793;48.940;2.618;2022-07-22T14:51:04;33.80;68.00
48978;DHT22;34793;48.940;2.618;2022-07-22T14:53:30;33.80;69.00
48978;DHT22;34793;48.940;2.618;2022-07-22T14:55:55;34.10;68.20
48978;DHT22;34793;48.940;2.618;2022-07-22T14:58:21;34.00;67.60
48978;DHT22;34793;48.940;2.618;2022-07-22T15:00:47;34.10;68.40
48978;DHT22;34793;48.940;2.618;2022-07-22T15:03:12;34.30;68.40
48978;DHT22;34793;48.940;2.618;2022-07-22T15:05:38;34.00;68.20
48978;DHT22;34793;48.940;2.618;2022-07-22T15:08:06;34.10;68.20
48978;DHT22;34793;48.940;2.618;2022-07-22T15:10:32;34.10;67.40
48978;DHT22;34793;48.940;2.618;2022-07-22T15:12:57;33.90;68.40
48978;DHT22;34793;48.940;2.618;2022-07-22T15:15:23;33.90;67.80
48978;DHT22;34793;48.940;2.618;2022-07-22T15:17:48;34.00;67.60
48978;DHT22;34793;48.940;2.618;2022-07-22T15:20:14;33.90;68.50
48978;DHT22;34793;48.940;2.618;2022-07-22T15:22:39;33.80;67.90
48978;DHT22;34793;48.940;2.618;2022-07-22T15:25:05;33.80;67.50
48978;DHT22;34793;48.940;2.618;2022-07-22T15:27:30;33.60;68.10
48978;DHT22;34793;48.940;2.618;2022-07-22T15:29:56;33.70;68.40
48978;DHT22;34793;48.940;2.618;2022-07-22T15:32:21;33.30;68.40
48978;DHT22;34793;48.940;2.618;2022-07-22T15:34:47;33.50;68.70
48978;DHT22;34793;48.940;2.618;2022-07-22T15:37:12;33.40;68.00
48978;DHT22;34793;48.940;2.618;2022-07-22T15:39:38;33.50;67.80
48978;DHT22;34793;48.940;2.618;2022-07-22T15:42:04;33.30;68.80
48978;DHT22;34793;48.940;2.618;2022-07-22T15:44:29;33.00;69.50
48978;DHT22;34793;48.940;2.618;2022-07-22T15:46:55;32.90;70.20
48978;DHT22;34793;48.940;2.618;2022-07-22T15:49:22;33.00;69.90
48978;DHT22;34793;48.940;2.618;2022-07-22T15:51:48;33.00;69.60
48978;DHT22;34793;48.940;2.618;2022-07-22T15:54:13;32.90;69.80
48978;DHT22;34793;48.940;2.618;2022-07-22T15:56:39;32.60;70.10
48978;DHT22;34793;48.940;2.618;2022-07-22T15:59:04;32.40;70.70
48978;DHT22;34793;48.940;2.618;2022-07-22T16:01:49;32.60;70.60
48978;DHT22;34793;48.940;2.618;2022-07-22T16:04:14;32.60;70.40
48978;DHT22;34793;48.940;2.618;2022-07-22T16:06:40;32.70;70.50
48978;DHT22;34793;48.940;2.618;2022-07-22T16:09:05;32.90;70.00
48978;DHT22;34793;48.940;2.618;2022-07-22T16:11:32;33.20;69.30
48978;DHT22;34793;48.940;2.618;2022-07-22T16:13:57;33.20;68.80
48978;DHT22;34793;48.940;2.618;2022-07-22T16:16:23;33.10;69.20
48978;DHT22;34793;48.940;2.618;2022-07-22T16:18:48;33.00;70.30
48978;DHT22;34793;48.940;2.618;2022-07-22T16:21:14;33.00;69.50
48978;DHT22;34793;48.940;2.618;2022-07-22T16:23:39;33.40;68.70
48978;DHT22;34793;48.940;2.618;2022-07-22T16:26:05;33.60;68.80
48978;DHT22;34793;48.940;2.618;2022-07-22T16:28:31;33.40;68.60
48978;DHT22;34793;48.940;2.618;2022-07-22T16:30:56;33.20;68.40
48978;DHT22;34793;48.940;2.618;2022-07-22T16:33:22;33.10;68.70
48978;DHT22;34793;48.940;2.618;2022-07-22T16:35:47;33.30;68.60
48978;DHT22;34793;48.940;2.618;2022-07-22T16:38:13;33.50;68.30
48978;DHT22;34793;48.940;2.618;2022-07-22T16:40:39;33.50;68.50
48978;DHT22;34793;48.940;2.618;2022-07-22T16:43:04;33.40;68.60